createdAt,value
2018-04-27T00:00:24.197Z,96.50
2018-04-27T00:02:51.795Z,96.90
2018-04-27T00:05:19.349Z,96.50
2018-04-27T00:07:47.710Z,97.00
2018-04-27T00:10:16.169Z,97.00
2018-04-27T00:12:43.675Z,97.80
2018-04-27T00:15:11.954Z,97.50
2018-04-27T00:17:40.268Z,97.00
2018-04-27T00:20:07.871Z,97.00
2018-04-27T00:22:35.504Z,97.10
2018-04-27T00:25:03.860Z,97.60
2018-04-27T00:27:32.132Z,97.80
2018-04-27T00:30:00.393Z,98.10
2018-04-27T00:32:27.903Z,98.10
2018-04-27T00:34:55.427Z,98.20
2018-04-27T00:37:23.710Z,98.10
2018-04-27T00:39:51.320Z,98.10
2018-04-27T00:42:18.825Z,98.40
2018-04-27T00:44:46.575Z,98.10
2018-04-27T00:47:14.111Z,97.90
2018-04-27T00:49:42.515Z,97.90
2018-04-27T00:52:10.066Z,97.90
2018-04-27T00:54:37.558Z,98.50
2018-04-27T00:57:05.188Z,98.90
2018-04-27T00:59:32.759Z,99.10
2018-04-27T01:02:00.607Z,98.90
2018-04-27T01:04:28.125Z,99.10
2018-04-27T01:06:56.554Z,99.30
2018-04-27T01:09:24.106Z,99.90
2018-04-27T01:11:51.651Z,99.90
2018-04-27T01:14:19.150Z,99.90
2018-04-27T01:16:48.378Z,99.90
2018-04-27T01:19:16.845Z,99.90
2018-04-27T01:21:44.385Z,99.90
2018-04-27T01:24:11.970Z,99.90
2018-04-27T01:26:41.417Z,99.90
2018-04-27T01:29:09.868Z,99.80
2018-04-27T01:31:37.375Z,99.90
2018-04-27T01:34:04.936Z,99.90
2018-04-27T01:36:32.555Z,99.90
2018-04-27T01:39:00.860Z,99.90
2018-04-27T01:41:28.366Z,99.90
2018-04-27T01:43:55.989Z,99.90
2018-04-27T01:46:23.563Z,99.90
2018-04-27T01:48:52.080Z,99.90
2018-04-27T01:51:19.723Z,99.90
2018-04-27T01:53:47.220Z,99.90
2018-04-27T01:56:14.740Z,99.90
2018-04-27T01:58:43.264Z,99.90
2018-04-27T02:01:10.857Z,99.90
2018-04-27T02:03:38.421Z,99.90
2018-04-27T02:06:05.977Z,99.90
2018-04-27T02:08:34.470Z,99.90
2018-04-27T02:11:02.828Z,99.90
2018-04-27T02:13:30.311Z,99.90
2018-04-27T02:15:57.809Z,99.90
2018-04-27T02:18:25.295Z,99.90
2018-04-27T02:20:52.852Z,99.90
2018-04-27T02:23:20.378Z,99.90
2018-04-27T02:25:47.887Z,99.90
2018-04-27T02:28:15.475Z,99.90
2018-04-27T02:30:42.999Z,99.90
2018-04-27T02:33:10.545Z,99.90
2018-04-27T02:35:38.062Z,99.90
2018-04-27T02:38:05.666Z,99.90
2018-04-27T02:40:33.996Z,99.90
2018-04-27T02:43:01.564Z,99.90
2018-04-27T02:45:30.051Z,99.90
2018-04-27T02:47:57.568Z,99.90
2018-04-27T02:50:25.079Z,99.90
2018-04-27T02:52:53.514Z,99.90
2018-04-27T02:55:21.003Z,99.90
2018-04-27T02:57:48.556Z,99.90
2018-04-27T03:00:17.105Z,99.90
2018-04-27T03:02:44.664Z,99.90
2018-04-27T03:05:14.110Z,99.90
2018-04-27T03:07:41.697Z,99.90
2018-04-27T03:10:09.214Z,99.90
2018-04-27T03:12:37.496Z,99.90
2018-04-27T03:15:04.992Z,99.90
2018-04-27T03:17:32.539Z,99.90
2018-04-27T03:20:00.047Z,99.90
2018-04-27T03:22:27.541Z,99.90
2018-04-27T03:24:55.071Z,99.90
2018-04-27T03:27:23.556Z,99.90
2018-04-27T03:29:51.169Z,99.90
2018-04-27T03:32:18.692Z,99.90
2018-04-27T03:34:46.243Z,99.90
2018-04-27T03:37:13.760Z,99.90
2018-04-27T03:39:42.147Z,99.90
2018-04-27T03:42:10.580Z,99.90
2018-04-27T03:44:38.091Z,99.90
2018-04-27T03:47:06.362Z,99.90
2018-04-27T03:49:33.877Z,99.90
2018-04-27T03:52:01.392Z,99.90
2018-04-27T03:54:28.923Z,99.90
2018-04-27T03:56:56.456Z,99.90
2018-04-27T03:59:36.298Z,99.90
2018-04-27T04:02:15.641Z,99.90
2018-04-27T04:04:55.318Z,99.90
2018-04-27T04:07:23.785Z,99.90
2018-04-27T04:09:51.372Z,99.90
2018-04-27T04:12:18.883Z,99.90
2018-04-27T04:14:46.384Z,99.90
2018-04-27T04:17:14.722Z,99.90
2018-04-27T04:19:43.102Z,99.90
2018-04-27T04:22:10.680Z,99.90
2018-04-27T04:24:38.228Z,99.90
2018-04-27T04:27:06.513Z,99.90
2018-04-27T04:29:34.077Z,99.90
2018-04-27T04:32:01.585Z,99.90
2018-04-27T04:34:30.025Z,99.90
2018-04-27T04:36:57.551Z,99.90
2018-04-27T04:39:25.142Z,99.90
2018-04-27T04:41:52.776Z,99.90
2018-04-27T04:44:20.310Z,99.90
2018-04-27T04:46:50.849Z,99.90
2018-04-27T04:49:18.474Z,99.70
2018-04-27T04:51:46.784Z,98.30
2018-04-27T04:54:14.301Z,98.30
2018-04-27T04:56:41.917Z,98.10
2018-04-27T04:59:09.479Z,97.70
2018-04-27T05:01:37.376Z,97.80
2018-04-27T05:04:04.904Z,98.20
2018-04-27T05:06:32.409Z,99.90
2018-04-27T05:09:00.833Z,99.30
2018-04-27T05:11:28.367Z,99.90
2018-04-27T05:13:55.879Z,99.90
2018-04-27T05:16:23.439Z,99.90
2018-04-27T05:18:51.032Z,99.90
2018-04-27T05:21:18.568Z,99.90
2018-04-27T05:23:46.092Z,99.90
2018-04-27T05:26:13.644Z,99.90
2018-04-27T05:28:41.199Z,99.90
2018-04-27T05:31:21.596Z,99.90
2018-04-27T05:33:49.141Z,99.90
2018-04-27T05:36:17.611Z,99.90
2018-04-27T05:38:45.168Z,99.90
2018-04-27T05:41:14.303Z,99.90
2018-04-27T05:43:41.895Z,99.90
2018-04-27T05:46:10.391Z,99.90
2018-04-27T05:48:37.957Z,99.90
2018-04-27T05:51:05.503Z,99.90
2018-04-27T05:53:33.823Z,99.90
2018-04-27T05:56:01.535Z,99.90
2018-04-27T05:58:30.011Z,99.90
2018-04-27T06:00:57.596Z,99.90
2018-04-27T06:03:48.488Z,99.90
2018-04-27T06:06:16.769Z,99.40
2018-04-27T06:08:45.024Z,99.00
2018-04-27T06:11:12.524Z,99.10
2018-04-27T06:13:40.835Z,99.90
2018-04-27T06:16:08.417Z,99.90
2018-04-27T06:18:35.927Z,99.90
2018-04-27T06:21:03.557Z,99.90
2018-04-27T06:23:31.088Z,99.90
2018-04-27T06:25:58.698Z,99.90
2018-04-27T06:28:26.362Z,99.90
2018-04-27T06:30:54.937Z,99.90
2018-04-27T06:33:23.438Z,98.60
2018-04-27T06:35:51.083Z,99.40
2018-04-27T06:38:18.660Z,97.70
2018-04-27T06:40:48.182Z,94.50
2018-04-27T06:43:34.380Z,93.50
2018-04-27T06:48:41.149Z,93.20
2018-04-27T06:51:09.661Z,93.00
2018-04-27T06:53:37.170Z,92.90
2018-04-27T06:56:04.727Z,92.10
2018-04-27T06:58:32.313Z,93.10
2018-04-27T07:01:00.031Z,95.00
2018-04-27T07:03:27.612Z,94.90
2018-04-27T07:05:55.343Z,96.60
2018-04-27T07:08:23.888Z,95.00
2018-04-27T07:10:51.434Z,96.60
2018-04-27T07:13:19.765Z,95.00
2018-04-27T07:15:47.354Z,95.00
2018-04-27T07:18:14.969Z,95.30
2018-04-27T07:20:42.647Z,94.70
2018-04-27T07:23:10.177Z,94.80
2018-04-27T07:25:39.399Z,95.50
2018-04-27T07:28:06.938Z,95.50
2018-04-27T07:30:35.228Z,96.40
2018-04-27T07:33:02.876Z,96.40
2018-04-27T07:35:30.474Z,94.80
2018-04-27T07:37:58.087Z,95.40
2018-04-27T07:40:25.647Z,95.30
2018-04-27T07:42:53.232Z,96.00
2018-04-27T07:45:20.848Z,95.90
2018-04-27T07:47:48.459Z,94.00
2018-04-27T07:50:16.061Z,94.80
2018-04-27T07:52:43.563Z,93.30
2018-04-27T07:55:11.149Z,94.30
2018-04-27T07:57:38.687Z,94.00
2018-04-27T08:00:06.828Z,92.00
2018-04-27T08:02:36.186Z,94.70
2018-04-27T08:05:05.663Z,94.90
2018-04-27T08:07:33.174Z,93.60
2018-04-27T08:10:00.793Z,93.00
2018-04-27T08:12:28.310Z,93.60
2018-04-27T08:14:57.711Z,94.40
2018-04-27T08:17:25.224Z,92.70
2018-04-27T08:19:52.770Z,91.70
2018-04-27T08:22:21.287Z,91.20
2018-04-27T08:24:49.803Z,91.50
2018-04-27T08:27:17.489Z,91.10
2018-04-27T08:29:46.058Z,90.00
2018-04-27T08:32:13.640Z,94.00
2018-04-27T08:34:41.282Z,90.90
2018-04-27T08:37:09.607Z,93.60
2018-04-27T08:39:37.121Z,93.60
2018-04-27T08:42:04.720Z,92.40
2018-04-27T08:44:32.254Z,92.50
2018-04-27T08:46:59.799Z,92.40
2018-04-27T08:49:27.305Z,91.40
2018-04-27T08:51:54.853Z,93.30
2018-04-27T08:54:22.411Z,93.40
2018-04-27T08:56:49.964Z,91.10
2018-04-27T08:59:17.584Z,88.60
2018-04-27T09:01:45.886Z,90.40
2018-04-27T09:04:13.491Z,90.40
2018-04-27T09:06:41.084Z,90.40
2018-04-27T09:09:08.612Z,90.90
2018-04-27T09:11:36.211Z,90.90
2018-04-27T09:14:03.774Z,87.10
2018-04-27T09:16:31.330Z,86.00
2018-04-27T09:18:58.932Z,89.60
2018-04-27T09:21:26.452Z,85.20
2018-04-27T09:23:54.879Z,89.60
2018-04-27T09:26:22.443Z,86.90
2018-04-27T09:28:50.717Z,82.40
2018-04-27T09:31:19.002Z,85.30
2018-04-27T09:33:47.264Z,82.80
2018-04-27T09:36:14.826Z,82.80
2018-04-27T09:38:42.338Z,82.60
2018-04-27T09:41:09.968Z,79.90
2018-04-27T09:43:37.526Z,78.70
2018-04-27T09:46:05.885Z,78.60
2018-04-27T09:48:34.221Z,81.80
2018-04-27T09:51:01.729Z,81.50
2018-04-27T09:53:30.243Z,80.70
2018-04-27T09:55:59.455Z,80.90
2018-04-27T09:58:28.671Z,76.20
2018-04-27T10:00:56.304Z,76.10
2018-04-27T10:03:24.812Z,81.40
2018-04-27T10:05:53.109Z,77.40
2018-04-27T10:08:20.649Z,77.10
2018-04-27T10:10:48.949Z,73.90
2018-04-27T10:13:16.533Z,73.80
2018-04-27T10:15:45.078Z,75.80
2018-04-27T10:18:13.388Z,75.60
2018-04-27T10:20:40.981Z,75.50
2018-04-27T10:23:08.596Z,76.60
2018-04-27T10:25:37.120Z,70.30
2018-04-27T10:28:05.585Z,70.20
2018-04-27T10:30:33.131Z,72.30
2018-04-27T10:33:01.495Z,74.50
2018-04-27T10:35:29.028Z,74.60
2018-04-27T10:37:56.572Z,71.00
2018-04-27T10:40:25.600Z,76.80
2018-04-27T10:42:53.326Z,70.80
2018-04-27T10:45:41.570Z,73.80
2018-04-27T10:48:09.342Z,71.80
2018-04-27T10:53:17.065Z,74.70
2018-04-27T10:55:45.254Z,70.60
2018-04-27T10:58:13.710Z,70.20
2018-04-27T11:00:41.373Z,73.30
2018-04-27T11:03:09.484Z,71.80
2018-04-27T11:05:38.019Z,73.30
2018-04-27T11:08:05.573Z,66.80
2018-04-27T11:10:33.131Z,67.20
2018-04-27T11:13:00.773Z,68.10
2018-04-27T11:15:28.301Z,71.90
2018-04-27T11:17:56.633Z,68.50
2018-04-27T11:20:24.242Z,68.30
2018-04-27T11:22:52.546Z,67.10
2018-04-27T11:25:20.099Z,67.00
2018-04-27T11:27:47.655Z,67.30
2018-04-27T11:30:15.185Z,68.50
2018-04-27T11:32:42.708Z,63.30
2018-04-27T11:35:10.318Z,64.20
2018-04-27T11:37:37.868Z,67.50
2018-04-27T11:40:05.392Z,66.00
2018-04-27T11:42:32.946Z,70.30
2018-04-27T11:45:01.416Z,65.30
2018-04-27T11:47:29.745Z,63.70
2018-04-27T11:49:57.327Z,63.70
2018-04-27T11:52:24.946Z,70.60
2018-04-27T11:54:53.485Z,65.50
2018-04-27T11:57:21.948Z,63.80
2018-04-27T11:59:49.597Z,64.40
2018-04-27T12:02:17.632Z,70.00
2018-04-27T12:04:46.161Z,62.90
2018-04-27T12:07:13.734Z,64.30
2018-04-27T12:09:41.276Z,67.30
2018-04-27T12:12:08.816Z,62.40
2018-04-27T12:14:36.421Z,62.60
2018-04-27T12:17:04.877Z,62.60
2018-04-27T12:19:33.193Z,61.60
2018-04-27T12:22:00.797Z,61.60
2018-04-27T12:24:28.501Z,67.10
2018-04-27T12:26:57.903Z,68.80
2018-04-27T12:29:26.176Z,62.60
2018-04-27T12:31:53.763Z,62.60
2018-04-27T12:34:22.017Z,63.60
2018-04-27T12:36:49.621Z,63.20
2018-04-27T12:39:18.097Z,60.80
2018-04-27T12:41:45.643Z,66.40
2018-04-27T12:44:14.024Z,62.60
2018-04-27T12:46:42.348Z,60.30
2018-04-27T12:49:09.942Z,59.70
2018-04-27T12:51:38.470Z,63.80
2018-04-27T12:54:06.051Z,60.40
2018-04-27T12:56:33.670Z,59.40
2018-04-27T12:59:02.137Z,57.20
2018-04-27T13:01:29.674Z,57.90
2018-04-27T13:03:57.207Z,60.40
2018-04-27T13:06:25.539Z,62.40
2018-04-27T13:08:54.024Z,62.20
2018-04-27T13:11:21.544Z,59.20
2018-04-27T13:13:49.854Z,59.70
2018-04-27T13:16:18.329Z,59.00
2018-04-27T13:18:45.881Z,67.20
2018-04-27T13:21:13.478Z,62.20
2018-04-27T13:23:41.020Z,57.90
2018-04-27T13:26:08.601Z,61.50
2018-04-27T13:28:36.112Z,60.80
2018-04-27T13:31:03.636Z,60.90
2018-04-27T13:33:31.161Z,59.70
2018-04-27T13:35:59.417Z,60.80
2018-04-27T13:38:26.927Z,60.70
2018-04-27T13:40:54.511Z,58.90
2018-04-27T13:43:22.087Z,60.20
2018-04-27T13:45:49.699Z,56.80
2018-04-27T13:48:18.056Z,55.90
2018-04-27T13:50:45.728Z,55.80
2018-04-27T13:53:14.971Z,58.20
2018-04-27T13:55:42.499Z,58.20
2018-04-27T13:58:10.079Z,57.60
2018-04-27T14:00:37.681Z,58.80
2018-04-27T14:03:05.277Z,57.60
2018-04-27T14:05:33.883Z,62.10
2018-04-27T14:08:01.400Z,56.70
2018-04-27T14:10:29.066Z,60.30
2018-04-27T14:12:56.620Z,57.40
2018-04-27T14:15:24.199Z,55.40
2018-04-27T14:17:51.808Z,60.10
2018-04-27T14:20:20.435Z,57.20
2018-04-27T14:22:47.981Z,55.20
2018-04-27T14:25:15.532Z,58.10
2018-04-27T14:27:43.102Z,55.10
2018-04-27T14:30:10.656Z,55.00
2018-04-27T14:32:38.161Z,55.20
2018-04-27T14:35:05.725Z,56.60
2018-04-27T14:37:33.312Z,55.10
2018-04-27T14:40:00.840Z,56.00
2018-04-27T14:42:28.436Z,58.40
2018-04-27T14:44:56.028Z,56.40
2018-04-27T14:47:23.663Z,57.10
2018-04-27T14:49:51.198Z,53.90
2018-04-27T14:52:18.760Z,60.50
2018-04-27T14:54:48.270Z,56.10
2018-04-27T14:57:15.832Z,59.20
2018-04-27T14:59:44.288Z,57.40
2018-04-27T15:02:11.918Z,56.90
2018-04-27T15:04:39.485Z,55.30
2018-04-27T15:07:07.067Z,55.20
2018-04-27T15:09:34.617Z,53.70
2018-04-27T15:12:02.205Z,53.60
2018-04-27T15:14:29.849Z,54.00
2018-04-27T15:16:57.422Z,54.40
2018-04-27T15:19:24.992Z,57.50
2018-04-27T15:21:52.532Z,55.10
2018-04-27T15:24:20.972Z,55.10
2018-04-27T15:26:48.548Z,55.20
2018-04-27T15:29:16.114Z,54.10
2018-04-27T15:31:45.403Z,53.50
2018-04-27T15:34:12.975Z,53.40
2018-04-27T15:36:41.518Z,51.60
2018-04-27T15:39:09.128Z,51.10
2018-04-27T15:41:36.720Z,51.00
2018-04-27T15:44:04.376Z,52.90
2018-04-27T15:46:32.676Z,51.30
2018-04-27T15:49:00.288Z,51.30
2018-04-27T15:51:27.853Z,54.90
2018-04-27T15:53:55.518Z,51.80
2018-04-27T15:56:23.335Z,51.50
2018-04-27T15:58:51.908Z,49.50
2018-04-27T16:01:20.117Z,48.40
2018-04-27T16:03:47.667Z,47.20
2018-04-27T16:06:15.234Z,47.20
2018-04-27T16:08:42.854Z,47.30
2018-04-27T16:11:12.299Z,47.20
2018-04-27T16:13:45.851Z,48.60
2018-04-27T16:16:14.359Z,47.00
2018-04-27T16:18:41.904Z,48.10
2018-04-27T16:21:10.396Z,48.20
2018-04-27T16:23:37.940Z,49.80
2018-04-27T16:26:05.538Z,46.90
2018-04-27T16:28:33.879Z,49.10
2018-04-27T16:31:01.464Z,49.10
2018-04-27T16:33:29.924Z,49.90
2018-04-27T16:35:58.345Z,49.10
2018-04-27T16:38:25.918Z,47.20
2018-04-27T16:40:54.398Z,47.10
2018-04-27T16:43:21.933Z,47.30
2018-04-27T16:45:49.540Z,52.80
2018-04-27T16:48:17.858Z,48.10
2018-04-27T16:50:45.497Z,48.00
2018-04-27T16:53:15.204Z,46.40
2018-04-27T16:55:42.786Z,46.40
2018-04-27T16:58:10.397Z,48.20
2018-04-27T17:00:40.560Z,50.30
2018-04-27T17:03:08.900Z,49.40
2018-04-27T17:05:36.460Z,49.00
2018-04-27T17:08:03.988Z,49.20
2018-04-27T17:10:31.560Z,49.10
2018-04-27T17:12:59.121Z,47.60
2018-04-27T17:15:26.697Z,48.10
2018-04-27T17:17:54.878Z,47.50
2018-04-27T17:20:23.332Z,47.60
2018-04-27T17:22:51.699Z,52.20
2018-04-27T17:25:20.176Z,50.90
2018-04-27T17:27:47.732Z,51.10
2018-04-27T17:30:15.332Z,52.30
2018-04-27T17:32:44.237Z,54.30
2018-04-27T17:35:12.684Z,54.10
2018-04-27T17:37:40.905Z,57.00
2018-04-27T17:40:08.503Z,56.90
2018-04-27T17:42:36.048Z,58.70
2018-04-27T17:45:04.572Z,57.20
2018-04-27T17:47:33.070Z,56.90
2018-04-27T17:50:00.710Z,56.60
2018-04-27T17:52:28.361Z,56.60
2018-04-27T17:54:56.073Z,56.80
2018-04-27T17:57:24.711Z,58.30
2018-04-27T17:59:52.257Z,58.10
2018-04-27T18:02:19.791Z,57.00
2018-04-27T18:04:47.344Z,57.70
2018-04-27T18:07:14.960Z,57.40
2018-04-27T18:09:42.510Z,59.80
2018-04-27T18:12:10.917Z,62.40
2018-04-27T18:14:39.351Z,62.40
2018-04-27T18:17:07.963Z,65.40
2018-04-27T18:19:36.311Z,68.10
2018-04-27T18:22:03.904Z,68.20
2018-04-27T18:24:31.561Z,69.00
2018-04-27T18:26:59.100Z,69.40
2018-04-27T18:29:27.598Z,69.70
2018-04-27T18:31:55.105Z,69.80
2018-04-27T18:34:23.394Z,70.50
2018-04-27T18:36:50.944Z,70.60
2018-04-27T18:39:18.575Z,71.10
2018-04-27T18:41:46.832Z,71.70
2018-04-27T18:44:15.359Z,71.60
2018-04-27T18:46:43.786Z,71.60
2018-04-27T18:49:13.270Z,72.30
2018-04-27T18:51:41.598Z,72.30
2018-04-27T18:54:09.258Z,72.30
2018-04-27T18:56:38.602Z,72.30
2018-04-27T18:59:08.005Z,72.00
2018-04-27T19:01:35.541Z,71.70
2018-04-27T19:04:03.080Z,71.50
2018-04-27T19:06:30.677Z,72.20
2018-04-27T19:08:58.312Z,71.70
2018-04-27T19:11:25.790Z,70.70
2018-04-27T19:13:53.334Z,70.90
2018-04-27T19:16:20.916Z,71.90
2018-04-27T19:18:48.527Z,71.10
2018-04-27T19:21:19.027Z,71.30
2018-04-27T19:23:49.350Z,72.40
2018-04-27T19:26:18.630Z,71.90
2018-04-27T19:28:46.175Z,72.30
2018-04-27T19:31:14.665Z,72.40
2018-04-27T19:33:42.972Z,72.00
2018-04-27T19:36:10.543Z,71.90
2018-04-27T19:38:38.133Z,73.00
2018-04-27T19:41:05.696Z,72.40
2018-04-27T19:43:34.183Z,72.50
2018-04-27T19:46:01.724Z,72.60
2018-04-27T19:48:29.453Z,73.10
2018-04-27T19:50:56.985Z,71.90
2018-04-27T19:56:25.055Z,69.40
2018-04-27T19:58:52.719Z,69.70
2018-04-27T20:01:20.283Z,69.40
2018-04-27T20:03:48.757Z,69.20
2018-04-27T20:06:16.304Z,69.50
2018-04-27T20:09:06.741Z,69.50
2018-04-27T20:14:30.209Z,69.40
2018-04-27T20:17:01.736Z,69.40
2018-04-27T20:19:29.308Z,69.40
2018-04-27T20:21:57.893Z,69.40
2018-04-27T20:24:25.499Z,69.40
2018-04-27T20:26:53.835Z,70.80
2018-04-27T20:29:22.966Z,70.80
2018-04-27T20:31:50.504Z,71.00
2018-04-27T20:34:18.061Z,70.10
2018-04-27T20:36:45.685Z,70.80
2018-04-27T20:39:14.287Z,72.50
2018-04-27T20:41:42.622Z,72.90
2018-04-27T20:44:11.083Z,72.80
2018-04-27T20:46:38.744Z,73.60
2018-04-27T20:49:06.267Z,74.20
2018-04-27T20:51:33.870Z,74.30
2018-04-27T20:54:11.236Z,74.90
2018-04-27T20:56:47.349Z,75.10
2018-04-27T20:59:14.991Z,75.50
2018-04-27T21:01:42.554Z,75.30
2018-04-27T21:04:11.077Z,75.10
2018-04-27T21:06:40.871Z,75.70
2018-04-27T21:09:09.273Z,75.40
2018-04-27T21:11:38.809Z,75.50
2018-04-27T21:17:05.470Z,74.30
2018-04-27T21:19:33.835Z,75.00
2018-04-27T21:22:01.446Z,74.90
2018-04-27T21:24:29.030Z,75.50
2018-04-27T21:26:56.633Z,76.00
2018-04-27T21:29:42.918Z,75.20
2018-04-27T21:32:10.551Z,74.60
2018-04-27T21:34:40.044Z,74.50
2018-04-27T21:37:07.586Z,74.70
2018-04-27T21:39:35.161Z,73.40
2018-04-27T21:42:05.440Z,73.80
2018-04-27T21:44:38.809Z,73.50
2018-04-27T21:47:08.017Z,73.30
2018-04-27T21:49:35.585Z,73.10
2018-04-27T21:52:10.037Z,72.50
2018-04-27T21:54:37.594Z,74.30
2018-04-27T21:57:12.112Z,71.30
2018-04-27T21:59:45.512Z,71.70
2018-04-27T22:02:37.882Z,70.60
2018-04-27T22:05:13.782Z,71.50
2018-04-27T22:07:42.145Z,71.30
2018-04-27T22:10:09.681Z,71.70
2018-04-27T22:12:38.012Z,71.80
2018-04-27T22:15:05.608Z,73.00
2018-04-27T22:17:35.669Z,74.10
2018-04-27T22:20:08.323Z,74.10
2018-04-27T22:22:37.520Z,73.60
2018-04-27T22:25:12.803Z,73.90
2018-04-27T22:27:40.957Z,73.90
2018-04-27T22:30:08.540Z,75.40
2018-04-27T22:32:36.993Z,77.60
2018-04-27T22:35:07.105Z,80.30
2018-04-27T22:37:34.683Z,80.20
2018-04-27T22:40:04.954Z,79.80
2018-04-27T22:42:51.932Z,81.60
2018-04-27T22:45:21.054Z,81.60
2018-04-27T22:48:08.904Z,81.70
2018-04-27T22:50:36.462Z,80.90
2018-04-27T22:53:07.980Z,80.40
2018-04-27T22:55:36.465Z,81.60
2018-04-27T22:58:08.890Z,81.40
2018-04-27T23:00:38.020Z,82.70
2018-04-27T23:03:07.184Z,84.60
2018-04-27T23:05:36.454Z,83.90
2018-04-27T23:08:04.638Z,85.20
2018-04-27T23:10:54.716Z,85.20
2018-04-27T23:13:29.081Z,85.50
2018-04-27T23:16:03.292Z,85.30
2018-04-27T23:18:49.673Z,84.60
2018-04-27T23:21:19.899Z,85.30
2018-04-27T23:23:48.520Z,85.30
2018-04-27T23:26:16.147Z,84.50
2018-04-27T23:28:43.784Z,85.30
2018-04-27T23:31:11.353Z,85.60
2018-04-27T23:33:38.916Z,86.40
2018-04-27T23:36:06.509Z,87.70
2018-04-27T23:38:34.073Z,87.90
2018-04-27T23:41:01.651Z,86.90
2018-04-27T23:43:30.188Z,86.60
2018-04-27T23:45:57.740Z,85.50
2018-04-27T23:48:25.876Z,83.90
2018-04-27T23:50:57.128Z,84.20
2018-04-27T23:53:25.472Z,84.00
2018-04-27T23:55:53.069Z,84.10
2018-04-27T23:58:33.617Z,84.80
